sensor_id;sensor_type;location;lat;lon;timestamp;temperature;humidity
37518;DHT22;23366;52.498;13.446;2022-07-23T00:00:16;21.10;97.50
37518;DHT22;23366;52.498;13.446;2022-07-23T00:02:42;21.10;97.30
37518;DHT22;23366;52.498;13.446;2022-07-23T00:05:08;21.10;97.20
37518;DHT22;23366;52.498;13.446;2022-07-23T00:07:34;21.10;97.10
37518;DHT22;23366;52.498;13.446;2022-07-23T00:09:59;21.10;97.00
37518;DHT22;23366;52.498;13.446;2022-07-23T00:12:25;21.10;96.90
37518;DHT22;23366;52.498;13.446;2022-07-23T00:14:51;21.00;97.40
37518;DHT22;23366;52.498;13.446;2022-07-23T00:17:17;21.00;97.10
37518;DHT22;23366;52.498;13.446;2022-07-23T00:19:43;21.00;97.00
37518;DHT22;23366;52.498;13.446;2022-07-23T00:22:08;20.90;96.90
37518;DHT22;23366;52.498;13.446;2022-07-23T00:24:34;20.90;96.90
37518;DHT22;23366;52.498;13.446;2022-07-23T00:26:59;20.90;97.20
37518;DHT22;23366;52.498;13.446;2022-07-23T00:29:25;20.90;97.80
37518;DHT22;23366;52.498;13.446;2022-07-23T00:31:51;20.90;97.70
37518;DHT22;23366;52.498;13.446;2022-07-23T00:34:16;20.90;97.70
37518;DHT22;23366;52.498;13.446;2022-07-23T00:36:42;20.90;98.10
37518;DHT22;23366;52.498;13.446;2022-07-23T00:39:08;20.90;97.80
37518;DHT22;23366;52.498;13.446;2022-07-23T00:41:33;20.90;97.30
37518;DHT22;23366;52.498;13.446;2022-07-23T00:44:25;20.90;97.80
37518;DHT22;23366;52.498;13.446;2022-07-23T00:46:52;20.90;97.50
37518;DHT22;23366;52.498;13.446;2022-07-23T00:49:23;20.90;97.50
37518;DHT22;23366;52.498;13.446;2022-07-23T00:51:49;20.90;97.50
37518;DHT22;23366;52.498;13.446;2022-07-23T00:54:16;20.90;97.30
37518;DHT22;23366;52.498;13.446;2022-07-23T00:56:46;20.90;97.20
37518;DHT22;23366;52.498;13.446;2022-07-23T00:59:12;20.80;97.10
37518;DHT22;23366;52.498;13.446;2022-07-23T01:01:38;20.80;97.30
37518;DHT22;23366;52.498;13.446;2022-07-23T01:04:04;20.80;97.90
37518;DHT22;23366;52.498;13.446;2022-07-23T01:06:34;20.80;97.50
37518;DHT22;23366;52.498;13.446;2022-07-23T01:09:01;20.80;97.20
37518;DHT22;23366;52.498;13.446;2022-07-23T01:11:27;20.80;97.30
37518;DHT22;23366;52.498;13.446;2022-07-23T01:13:53;20.80;97.20
37518;DHT22;23366;52.498;13.446;2022-07-23T01:16:19;20.80;97.20
37518;DHT22;23366;52.498;13.446;2022-07-23T01:18:45;20.80;97.20
37518;DHT22;23366;52.498;13.446;2022-07-23T01:21:12;20.80;97.10
37518;DHT22;23366;52.498;13.446;2022-07-23T01:23:41;20.80;96.90
37518;DHT22;23366;52.498;13.446;2022-07-23T01:26:07;20.80;96.90
37518;DHT22;23366;52.498;13.446;2022-07-23T01:28:32;20.80;97.40
37518;DHT22;23366;52.498;13.446;2022-07-23T01:30:58;20.80;97.30
37518;DHT22;23366;52.498;13.446;2022-07-23T01:33:23;20.70;97.60
37518;DHT22;23366;52.498;13.446;2022-07-23T01:35:49;20.70;97.80
37518;DHT22;23366;52.498;13.446;2022-07-23T01:38:15;20.60;98.20
37518;DHT22;23366;52.498;13.446;2022-07-23T01:40:40;20.60;98.60
37518;DHT22;23366;52.498;13.446;2022-07-23T01:43:06;20.50;98.50
37518;DHT22;23366;52.498;13.446;2022-07-23T01:45:32;20.50;98.80
37518;DHT22;23366;52.498;13.446;2022-07-23T01:47:57;20.50;99.10
37518;DHT22;23366;52.498;13.446;2022-07-23T01:50:23;20.40;98.70
37518;DHT22;23366;52.498;13.446;2022-07-23T01:52:49;20.40;98.90
37518;DHT22;23366;52.498;13.446;2022-07-23T01:55:14;20.40;99.40
37518;DHT22;23366;52.498;13.446;2022-07-23T01:57:40;20.30;99.20
37518;DHT22;23366;52.498;13.446;2022-07-23T02:00:06;20.30;99.40
37518;DHT22;23366;52.498;13.446;2022-07-23T02:02:32;20.30;99.90
37518;DHT22;23366;52.498;13.446;2022-07-23T02:04:57;20.20;99.50
37518;DHT22;23366;52.498;13.446;2022-07-23T02:07:23;20.20;99.90
37518;DHT22;23366;52.498;13.446;2022-07-23T02:09:48;20.20;99.70
37518;DHT22;23366;52.498;13.446;2022-07-23T02:12:14;20.20;99.70
37518;DHT22;23366;52.498;13.446;2022-07-23T02:14:40;20.10;99.60
37518;DHT22;23366;52.498;13.446;2022-07-23T02:17:05;20.10;99.90
37518;DHT22;23366;52.498;13.446;2022-07-23T02:19:31;20.00;99.90
37518;DHT22;23366;52.498;13.446;2022-07-23T02:21:57;20.00;99.90
37518;DHT22;23366;52.498;13.446;2022-07-23T02:24:22;20.00;99.50
37518;DHT22;23366;52.498;13.446;2022-07-23T02:26:48;20.00;99.50
37518;DHT22;23366;52.498;13.446;2022-07-23T02:29:14;20.00;99.60
37518;DHT22;23366;52.498;13.446;2022-07-23T02:31:39;20.00;99.90
37518;DHT22;23366;52.498;13.446;2022-07-23T02:34:05;20.00;99.80
37518;DHT22;23366;52.498;13.446;2022-07-23T02:36:31;20.00;99.70
37518;DHT22;23366;52.498;13.446;2022-07-23T02:38:57;20.00;99.60
37518;DHT22;23366;52.498;13.446;2022-07-23T02:41:23;19.80;99.50
37518;DHT22;23366;52.498;13.446;2022-07-23T02:43:49;19.90;99.70
37518;DHT22;23366;52.498;13.446;2022-07-23T02:46:15;19.80;99.90
37518;DHT22;23366;52.498;13.446;2022-07-23T02:48:40;19.90;99.90
37518;DHT22;23366;52.498;13.446;2022-07-23T02:51:06;19.90;99.90
37518;DHT22;23366;52.498;13.446;2022-07-23T02:53:31;19.90;99.90
37518;DHT22;23366;52.498;13.446;2022-07-23T02:55:57;19.90;99.90
37518;DHT22;23366;52.498;13.446;2022-07-23T02:58:23;19.90;99.90
37518;DHT22;23366;52.498;13.446;2022-07-23T03:00:50;19.90;99.90
37518;DHT22;23366;52.498;13.446;2022-07-23T03:03:16;19.90;99.90
37518;DHT22;23366;52.498;13.446;2022-07-23T03:05:41;19.80;99.90
37518;DHT22;23366;52.498;13.446;2022-07-23T03:08:07;19.80;99.90
37518;DHT22;23366;52.498;13.446;2022-07-23T03:10:32;19.70;99.90
37518;DHT22;23366;52.498;13.446;2022-07-23T03:12:58;19.60;99.90
37518;DHT22;23366;52.498;13.446;2022-07-23T03:15:24;19.60;99.90
37518;DHT22;23366;52.498;13.446;2022-07-23T03:17:49;19.60;99.90
37518;DHT22;23366;52.498;13.446;2022-07-23T03:20:15;19.60;99.90
37518;DHT22;23366;52.498;13.446;2022-07-23T03:22:41;19.60;99.90
37518;DHT22;23366;52.498;13.446;2022-07-23T03:25:07;19.60;99.90
37518;DHT22;23366;52.498;13.446;2022-07-23T03:27:33;19.50;99.90
37518;DHT22;23366;52.498;13.446;2022-07-23T03:30:00;19.50;99.90
37518;DHT22;23366;52.498;13.446;2022-07-23T03:32:26;19.50;99.90
37518;DHT22;23366;52.498;13.446;2022-07-23T03:34:52;19.60;99.90
37518;DHT22;23366;52.498;13.446;2022-07-23T03:37:18;19.50;99.90
37518;DHT22;23366;52.498;13.446;2022-07-23T03:39:44;19.50;99.90
37518;DHT22;23366;52.498;13.446;2022-07-23T03:42:10;19.50;99.90
37518;DHT22;23366;52.498;13.446;2022-07-23T03:44:36;19.50;99.90
37518;DHT22;23366;52.498;13.446;2022-07-23T03:47:05;19.50;99.90
37518;DHT22;23366;52.498;13.446;2022-07-23T03:49:32;19.50;99.90
37518;DHT22;23366;52.498;13.446;2022-07-23T03:51:58;19.50;99.90
37518;DHT22;23366;52.498;13.446;2022-07-23T03:54:24;19.50;99.90
37518;DHT22;23366;52.498;13.446;2022-07-23T03:56:50;19.50;99.90
37518;DHT22;23366;52.498;13.446;2022-07-23T03:59:15;19.50;99.90
37518;DHT22;23366;52.498;13.446;2022-07-23T04:01:41;19.50;99.90
37518;DHT22;23366;52.498;13.446;2022-07-23T04:04:09;19.50;99.90
37518;DHT22;23366;52.498;13.446;2022-07-23T04:06:35;19.50;99.90
37518;DHT22;23366;52.498;13.446;2022-07-23T04:09:01;19.50;99.90
37518;DHT22;23366;52.498;13.446;2022-07-23T04:11:27;19.40;99.90
37518;DHT22;23366;52.498;13.446;2022-07-23T04:13:53;19.50;99.90
37518;DHT22;23366;52.498;13.446;2022-07-23T04:16:18;19.50;99.90
37518;DHT22;23366;52.498;13.446;2022-07-23T04:18:44;19.40;99.90
37518;DHT22;23366;52.498;13.446;2022-07-23T04:21:11;19.50;99.90
37518;DHT22;23366;52.498;13.446;2022-07-23T04:23:36;19.50;99.90
37518;DHT22;23366;52.498;13.446;2022-07-23T04:26:02;19.50;99.90
37518;DHT22;23366;52.498;13.446;2022-07-23T04:28:27;19.30;99.30
37518;DHT22;23366;52.498;13.446;2022-07-23T04:30:56;19.20;99.10
37518;DHT22;23366;52.498;13.446;2022-07-23T04:33:22;19.20;99.70
37518;DHT22;23366;52.498;13.446;2022-07-23T04:35:48;19.10;99.50
37518;DHT22;23366;52.498;13.446;2022-07-23T04:38:14;19.10;99.30
37518;DHT22;23366;52.498;13.446;2022-07-23T04:40:39;18.70;99.20
37518;DHT22;23366;52.498;13.446;2022-07-23T04:43:05;18.80;99.90
37518;DHT22;23366;52.498;13.446;2022-07-23T04:45:31;18.80;99.90
37518;DHT22;23366;52.498;13.446;2022-07-23T04:47:56;18.60;99.90
37518;DHT22;23366;52.498;13.446;2022-07-23T04:50:22;18.50;99.90
37518;DHT22;23366;52.498;13.446;2022-07-23T04:52:48;18.40;99.90
37518;DHT22;23366;52.498;13.446;2022-07-23T04:55:15;18.30;99.90
37518;DHT22;23366;52.498;13.446;2022-07-23T04:57:40;18.10;99.90
37518;DHT22;23366;52.498;13.446;2022-07-23T05:00:07;17.90;99.90
37518;DHT22;23366;52.498;13.446;2022-07-23T05:02:33;17.80;99.90
37518;DHT22;23366;52.498;13.446;2022-07-23T05:04:58;17.60;99.90
37518;DHT22;23366;52.498;13.446;2022-07-23T05:07:24;17.40;99.90
37518;DHT22;23366;52.498;13.446;2022-07-23T05:09:50;17.20;99.90
37518;DHT22;23366;52.498;13.446;2022-07-23T05:12:16;16.90;99.90
37518;DHT22;23366;52.498;13.446;2022-07-23T05:14:41;16.80;99.90
37518;DHT22;23366;52.498;13.446;2022-07-23T05:17:08;16.90;99.90
37518;DHT22;23366;52.498;13.446;2022-07-23T05:19:34;16.80;99.90
37518;DHT22;23366;52.498;13.446;2022-07-23T05:22:00;16.70;99.90
37518;DHT22;23366;52.498;13.446;2022-07-23T05:24:25;16.60;99.90
37518;DHT22;23366;52.498;13.446;2022-07-23T05:26:51;16.50;99.90
37518;DHT22;23366;52.498;13.446;2022-07-23T05:29:17;16.50;99.90
37518;DHT22;23366;52.498;13.446;2022-07-23T05:31:42;16.20;99.90
37518;DHT22;23366;52.498;13.446;2022-07-23T05:34:08;16.10;99.90
37518;DHT22;23366;52.498;13.446;2022-07-23T05:36:34;16.00;99.90
37518;DHT22;23366;52.498;13.446;2022-07-23T05:38:59;15.90;99.90
37518;DHT22;23366;52.498;13.446;2022-07-23T05:41:25;15.80;99.90
37518;DHT22;23366;52.498;13.446;2022-07-23T05:43:50;15.90;99.90
37518;DHT22;23366;52.498;13.446;2022-07-23T05:46:16;15.90;99.90
37518;DHT22;23366;52.498;13.446;2022-07-23T05:48:42;16.00;99.90
37518;DHT22;23366;52.498;13.446;2022-07-23T05:51:08;16.20;99.90
37518;DHT22;23366;52.498;13.446;2022-07-23T05:53:34;16.20;99.90
37518;DHT22;23366;52.498;13.446;2022-07-23T05:56:00;16.30;99.90
37518;DHT22;23366;52.498;13.446;2022-07-23T05:58:26;16.30;99.90
37518;DHT22;23366;52.498;13.446;2022-07-23T06:00:52;16.40;99.90
37518;DHT22;23366;52.498;13.446;2022-07-23T06:03:17;16.50;99.90
37518;DHT22;23366;52.498;13.446;2022-07-23T06:05:43;16.40;99.90
37518;DHT22;23366;52.498;13.446;2022-07-23T06:08:09;16.40;99.90
37518;DHT22;23366;52.498;13.446;2022-07-23T06:10:34;16.40;99.90
37518;DHT22;23366;52.498;13.446;2022-07-23T06:13:00;16.40;99.90
37518;DHT22;23366;52.498;13.446;2022-07-23T06:15:26;16.40;99.90
37518;DHT22;23366;52.498;13.446;2022-07-23T06:17:51;16.50;99.90
37518;DHT22;23366;52.498;13.446;2022-07-23T06:20:17;16.50;99.90
37518;DHT22;23366;52.498;13.446;2022-07-23T06:22:43;16.50;99.90
37518;DHT22;23366;52.498;13.446;2022-07-23T06:25:09;16.50;99.90
37518;DHT22;23366;52.498;13.446;2022-07-23T06:27:34;16.50;99.90
37518;DHT22;23366;52.498;13.446;2022-07-23T06:30:00;16.50;99.90
37518;DHT22;23366;52.498;13.446;2022-07-23T06:32:26;16.50;99.90
37518;DHT22;23366;52.498;13.446;2022-07-23T06:34:51;16.50;99.90
37518;DHT22;23366;52.498;13.446;2022-07-23T06:37:17;16.60;99.90
37518;DHT22;23366;52.498;13.446;2022-07-23T06:39:42;16.50;99.90
37518;DHT22;23366;52.498;13.446;2022-07-23T06:42:08;16.40;99.90
37518;DHT22;23366;52.498;13.446;2022-07-23T06:44:35;16.40;99.90
37518;DHT22;23366;52.498;13.446;2022-07-23T06:47:01;16.60;99.90
37518;DHT22;23366;52.498;13.446;2022-07-23T06:49:27;16.70;99.90
37518;DHT22;23366;52.498;13.446;2022-07-23T06:51:52;16.90;99.90
37518;DHT22;23366;52.498;13.446;2022-07-23T06:54:18;16.90;99.90
37518;DHT22;23366;52.498;13.446;2022-07-23T06:56:43;16.80;99.90
37518;DHT22;23366;52.498;13.446;2022-07-23T06:59:09;16.90;99.90
37518;DHT22;23366;52.498;13.446;2022-07-23T07:01:35;16.90;99.90
37518;DHT22;23366;52.498;13.446;2022-07-23T07:04:00;16.80;99.90
37518;DHT22;23366;52.498;13.446;2022-07-23T07:06:26;16.80;99.90
37518;DHT22;23366;52.498;13.446;2022-07-23T07:08:52;16.80;99.90
37518;DHT22;23366;52.498;13.446;2022-07-23T07:11:17;16.70;99.90
37518;DHT22;23366;52.498;13.446;2022-07-23T07:13:43;16.70;99.90
37518;DHT22;23366;52.498;13.446;2022-07-23T07:16:09;16.60;99.90
37518;DHT22;23366;52.498;13.446;2022-07-23T07:18:34;16.50;99.90
37518;DHT22;23366;52.498;13.446;2022-07-23T07:21:00;16.40;99.90
37518;DHT22;23366;52.498;13.446;2022-07-23T07:23:26;16.50;99.90
37518;DHT22;23366;52.498;13.446;2022-07-23T07:25:51;16.40;99.90
37518;DHT22;23366;52.498;13.446;2022-07-23T07:28:17;16.60;99.90
37518;DHT22;23366;52.498;13.446;2022-07-23T07:30:43;16.70;99.90
37518;DHT22;23366;52.498;13.446;2022-07-23T07:33:08;16.80;99.90
37518;DHT22;23366;52.498;13.446;2022-07-23T07:35:34;16.80;99.90
37518;DHT22;23366;52.498;13.446;2022-07-23T07:38:00;16.90;99.90
37518;DHT22;23366;52.498;13.446;2022-07-23T07:40:26;17.00;99.90
37518;DHT22;23366;52.498;13.446;2022-07-23T07:42:53;17.20;99.90
37518;DHT22;23366;52.498;13.446;2022-07-23T07:45:23;17.30;99.90
37518;DHT22;23366;52.498;13.446;2022-07-23T07:47:49;17.50;99.90
37518;DHT22;23366;52.498;13.446;2022-07-23T07:50:15;17.50;99.90
37518;DHT22;23366;52.498;13.446;2022-07-23T07:52:41;17.70;99.90
37518;DHT22;23366;52.498;13.446;2022-07-23T07:55:08;17.80;99.90
37518;DHT22;23366;52.498;13.446;2022-07-23T07:57:34;18.00;99.90
37518;DHT22;23366;52.498;13.446;2022-07-23T08:00:00;18.00;99.90
37518;DHT22;23366;52.498;13.446;2022-07-23T08:02:26;18.20;99.90
37518;DHT22;23366;52.498;13.446;2022-07-23T08:04:52;18.10;99.90
37518;DHT22;23366;52.498;13.446;2022-07-23T08:07:18;18.20;99.90
37518;DHT22;23366;52.498;13.446;2022-07-23T08:09:46;18.90;99.90
37518;DHT22;23366;52.498;13.446;2022-07-23T08:12:12;19.70;99.90
37518;DHT22;23366;52.498;13.446;2022-07-23T08:14:41;20.40;99.90
37518;DHT22;23366;52.498;13.446;2022-07-23T08:17:06;21.80;99.90
37518;DHT22;23366;52.498;13.446;2022-07-23T08:19:32;23.00;99.90
37518;DHT22;23366;52.498;13.446;2022-07-23T08:21:57;25.10;99.90
37518;DHT22;23366;52.498;13.446;2022-07-23T08:24:23;27.30;99.90
37518;DHT22;23366;52.498;13.446;2022-07-23T08:26:49;29.20;99.90
37518;DHT22;23366;52.498;13.446;2022-07-23T08:29:14;30.70;99.80
37518;DHT22;23366;52.498;13.446;2022-07-23T08:31:40;31.90;95.70
37518;DHT22;23366;52.498;13.446;2022-07-23T08:34:06;33.00;92.80
37518;DHT22;23366;52.498;13.446;2022-07-23T08:36:31;33.60;87.20
37518;DHT22;23366;52.498;13.446;2022-07-23T08:38:59;33.80;83.30
37518;DHT22;23366;52.498;13.446;2022-07-23T08:41:27;33.90;80.80
37518;DHT22;23366;52.498;13.446;2022-07-23T08:43:53;33.30;78.70
37518;DHT22;23366;52.498;13.446;2022-07-23T08:46:19;32.20;78.60
37518;DHT22;23366;52.498;13.446;2022-07-23T08:48:48;31.40;80.60
37518;DHT22;23366;52.498;13.446;2022-07-23T08:51:14;31.40;81.30
37518;DHT22;23366;52.498;13.446;2022-07-23T08:53:40;31.70;79.40
37518;DHT22;23366;52.498;13.446;2022-07-23T08:56:07;31.40;79.20
37518;DHT22;23366;52.498;13.446;2022-07-23T08:58:33;31.60;80.80
37518;DHT22;23366;52.498;13.446;2022-07-23T09:01:00;32.60;77.50
37518;DHT22;23366;52.498;13.446;2022-07-23T09:03:35;34.10;74.00
37518;DHT22;23366;52.498;13.446;2022-07-23T09:06:02;35.40;69.20
37518;DHT22;23366;52.498;13.446;2022-07-23T09:08:38;36.10;67.00
37518;DHT22;23366;52.498;13.446;2022-07-23T09:11:07;36.90;64.30
37518;DHT22;23366;52.498;13.446;2022-07-23T09:13:53;36.40;62.30
37518;DHT22;23366;52.498;13.446;2022-07-23T09:16:24;35.60;61.50
37518;DHT22;23366;52.498;13.446;2022-07-23T09:18:58;35.40;62.90
37518;DHT22;23366;52.498;13.446;2022-07-23T09:21:25;35.60;62.30
37518;DHT22;23366;52.498;13.446;2022-07-23T09:24:07;36.00;60.80
37518;DHT22;23366;52.498;13.446;2022-07-23T09:26:45;37.00;59.00
37518;DHT22;23366;52.498;13.446;2022-07-23T09:29:25;37.60;57.10
37518;DHT22;23366;52.498;13.446;2022-07-23T09:32:01;37.40;56.70
37518;DHT22;23366;52.498;13.446;2022-07-23T09:34:31;36.50;56.40
37518;DHT22;23366;52.498;13.446;2022-07-23T09:37:14;35.20;58.00
37518;DHT22;23366;52.498;13.446;2022-07-23T09:39:41;33.80;59.90
37518;DHT22;23366;52.498;13.446;2022-07-23T09:42:17;32.80;61.40
37518;DHT22;23366;52.498;13.446;2022-07-23T09:44:48;31.80;62.80
37518;DHT22;23366;52.498;13.446;2022-07-23T09:47:14;31.00;64.70
37518;DHT22;23366;52.498;13.446;2022-07-23T09:49:41;30.60;66.00
37518;DHT22;23366;52.498;13.446;2022-07-23T09:52:30;30.50;66.60
37518;DHT22;23366;52.498;13.446;2022-07-23T09:55:04;30.40;67.10
37518;DHT22;23366;52.498;13.446;2022-07-23T09:57:32;30.20;67.50
37518;DHT22;23366;52.498;13.446;2022-07-23T10:00:00;30.20;67.10
37518;DHT22;23366;52.498;13.446;2022-07-23T10:02:28;30.00;67.00
37518;DHT22;23366;52.498;13.446;2022-07-23T10:04:54;30.00;68.60
37518;DHT22;23366;52.498;13.446;2022-07-23T10:07:22;30.00;67.90
37518;DHT22;23366;52.498;13.446;2022-07-23T10:09:50;30.20;66.10
37518;DHT22;23366;52.498;13.446;2022-07-23T10:12:19;29.70;65.60
37518;DHT22;23366;52.498;13.446;2022-07-23T10:15:04;29.30;67.00
37518;DHT22;23366;52.498;13.446;2022-07-23T10:17:32;29.00;67.20
37518;DHT22;23366;52.498;13.446;2022-07-23T10:19:58;28.90;68.80
37518;DHT22;23366;52.498;13.446;2022-07-23T10:22:26;28.50;67.80
37518;DHT22;23366;52.498;13.446;2022-07-23T10:30:22;28.40;69.00
37518;DHT22;23366;52.498;13.446;2022-07-23T10:33:01;28.10;69.00
37518;DHT22;23366;52.498;13.446;2022-07-23T10:35:43;28.20;69.60
37518;DHT22;23366;52.498;13.446;2022-07-23T10:38:18;28.00;67.20
37518;DHT22;23366;52.498;13.446;2022-07-23T10:41:00;27.90;68.10
37518;DHT22;23366;52.498;13.446;2022-07-23T10:43:27;28.00;69.50
37518;DHT22;23366;52.498;13.446;2022-07-23T10:45:54;28.10;68.80
37518;DHT22;23366;52.498;13.446;2022-07-23T10:48:22;27.90;68.30
37518;DHT22;23366;52.498;13.446;2022-07-23T10:51:10;28.00;69.70
37518;DHT22;23366;52.498;13.446;2022-07-23T10:53:57;27.90;69.90
37518;DHT22;23366;52.498;13.446;2022-07-23T10:59:20;27.70;71.20
37518;DHT22;23366;52.498;13.446;2022-07-23T11:01:46;27.40;69.30
37518;DHT22;23366;52.498;13.446;2022-07-23T11:04:12;27.50;72.40
37518;DHT22;23366;52.498;13.446;2022-07-23T11:09:29;27.80;72.20
37518;DHT22;23366;52.498;13.446;2022-07-23T11:15:12;27.70;71.40
37518;DHT22;23366;52.498;13.446;2022-07-23T11:20:18;27.50;70.10
37518;DHT22;23366;52.498;13.446;2022-07-23T11:27:41;27.10;73.10
37518;DHT22;23366;52.498;13.446;2022-07-23T11:30:09;27.10;72.50
37518;DHT22;23366;52.498;13.446;2022-07-23T11:32:37;27.10;73.10
37518;DHT22;23366;52.498;13.446;2022-07-23T11:35:19;27.20;73.50
37518;DHT22;23366;52.498;13.446;2022-07-23T11:37:45;27.10;72.80
37518;DHT22;23366;52.498;13.446;2022-07-23T11:40:13;27.10;72.70
37518;DHT22;23366;52.498;13.446;2022-07-23T11:42:53;27.00;72.60
37518;DHT22;23366;52.498;13.446;2022-07-23T11:45:19;27.10;72.10
37518;DHT22;23366;52.498;13.446;2022-07-23T11:47:44;27.10;71.50
37518;DHT22;23366;52.498;13.446;2022-07-23T11:50:10;27.20;70.90
37518;DHT22;23366;52.498;13.446;2022-07-23T11:52:36;27.20;72.20
37518;DHT22;23366;52.498;13.446;2022-07-23T11:55:08;27.20;71.80
37518;DHT22;23366;52.498;13.446;2022-07-23T11:57:41;27.20;72.10
37518;DHT22;23366;52.498;13.446;2022-07-23T12:00:17;27.30;73.00
37518;DHT22;23366;52.498;13.446;2022-07-23T12:02:48;27.30;72.30
37518;DHT22;23366;52.498;13.446;2022-07-23T12:05:22;27.30;72.20
37518;DHT22;23366;52.498;13.446;2022-07-23T12:07:50;27.40;71.90
37518;DHT22;23366;52.498;13.446;2022-07-23T12:10:26;27.50;72.30
37518;DHT22;23366;52.498;13.446;2022-07-23T12:12:57;27.30;70.70
37518;DHT22;23366;52.498;13.446;2022-07-23T12:15:35;27.40;71.70
37518;DHT22;23366;52.498;13.446;2022-07-23T12:18:04;27.20;72.20
37518;DHT22;23366;52.498;13.446;2022-07-23T12:20:34;27.50;71.90
37518;DHT22;23366;52.498;13.446;2022-07-23T12:23:02;27.60;71.60
37518;DHT22;23366;52.498;13.446;2022-07-23T12:25:31;27.70;70.70
37518;DHT22;23366;52.498;13.446;2022-07-23T12:30:53;27.70;71.00
37518;DHT22;23366;52.498;13.446;2022-07-23T12:33:23;27.50;70.60
37518;DHT22;23366;52.498;13.446;2022-07-23T12:35:49;27.50;70.50
37518;DHT22;23366;52.498;13.446;2022-07-23T12:38:20;27.50;71.40
37518;DHT22;23366;52.498;13.446;2022-07-23T12:40:53;27.60;70.40
37518;DHT22;23366;52.498;13.446;2022-07-23T12:48:21;27.70;70.70
37518;DHT22;23366;52.498;13.446;2022-07-23T12:50:50;27.80;70.00
37518;DHT22;23366;52.498;13.446;2022-07-23T12:53:25;27.60;68.60
37518;DHT22;23366;52.498;13.446;2022-07-23T12:55:58;27.60;70.80
37518;DHT22;23366;52.498;13.446;2022-07-23T12:58:25;27.50;70.30
37518;DHT22;23366;52.498;13.446;2022-07-23T13:03:28;27.20;69.80
37518;DHT22;23366;52.498;13.446;2022-07-23T13:05:54;27.10;70.20
37518;DHT22;23366;52.498;13.446;2022-07-23T13:08:21;27.10;69.90
37518;DHT22;23366;52.498;13.446;2022-07-23T13:10:47;27.10;70.40
37518;DHT22;23366;52.498;13.446;2022-07-23T13:13:15;26.90;70.20
37518;DHT22;23366;52.498;13.446;2022-07-23T13:15:42;26.80;70.80
37518;DHT22;23366;52.498;13.446;2022-07-23T13:18:07;26.70;71.80
37518;DHT22;23366;52.498;13.446;2022-07-23T13:20:33;26.60;71.10
37518;DHT22;23366;52.498;13.446;2022-07-23T13:23:00;26.60;71.30
37518;DHT22;23366;52.498;13.446;2022-07-23T13:25:26;26.70;71.90
37518;DHT22;23366;52.498;13.446;2022-07-23T13:27:52;26.70;70.50
37518;DHT22;23366;52.498;13.446;2022-07-23T13:30:18;26.90;71.10
37518;DHT22;23366;52.498;13.446;2022-07-23T13:32:43;26.90;70.00
37518;DHT22;23366;52.498;13.446;2022-07-23T13:35:10;26.70;71.10
37518;DHT22;23366;52.498;13.446;2022-07-23T13:37:37;26.60;71.00
37518;DHT22;23366;52.498;13.446;2022-07-23T13:40:03;26.70;71.60
37518;DHT22;23366;52.498;13.446;2022-07-23T13:42:29;26.70;71.60
37518;DHT22;23366;52.498;13.446;2022-07-23T13:44:55;26.80;72.00
37518;DHT22;23366;52.498;13.446;2022-07-23T13:47:21;26.80;71.30
37518;DHT22;23366;52.498;13.446;2022-07-23T13:49:46;26.80;72.20
37518;DHT22;23366;52.498;13.446;2022-07-23T13:52:12;26.80;72.00
37518;DHT22;23366;52.498;13.446;2022-07-23T13:54:37;26.80;71.00
37518;DHT22;23366;52.498;13.446;2022-07-23T13:57:04;26.70;70.90
37518;DHT22;23366;52.498;13.446;2022-07-23T13:59:29;26.70;70.70
37518;DHT22;23366;52.498;13.446;2022-07-23T14:01:55;26.70;71.20
37518;DHT22;23366;52.498;13.446;2022-07-23T14:04:21;26.70;70.70
37518;DHT22;23366;52.498;13.446;2022-07-23T14:06:47;26.90;72.20
37518;DHT22;23366;52.498;13.446;2022-07-23T14:09:12;26.90;71.40
37518;DHT22;23366;52.498;13.446;2022-07-23T14:11:39;26.90;71.70
37518;DHT22;23366;52.498;13.446;2022-07-23T14:14:05;27.00;70.40
37518;DHT22;23366;52.498;13.446;2022-07-23T14:16:30;27.00;70.80
37518;DHT22;23366;52.498;13.446;2022-07-23T14:18:56;26.90;70.70
37518;DHT22;23366;52.498;13.446;2022-07-23T14:21:22;26.90;71.70
37518;DHT22;23366;52.498;13.446;2022-07-23T14:23:47;27.00;72.50
37518;DHT22;23366;52.498;13.446;2022-07-23T14:26:13;26.90;69.20
37518;DHT22;23366;52.498;13.446;2022-07-23T14:28:39;27.00;69.80
37518;DHT22;23366;52.498;13.446;2022-07-23T14:31:04;26.90;71.10
37518;DHT22;23366;52.498;13.446;2022-07-23T14:33:30;26.90;70.70
37518;DHT22;23366;52.498;13.446;2022-07-23T14:35:55;26.90;71.10
37518;DHT22;23366;52.498;13.446;2022-07-23T14:38:21;26.80;70.70
37518;DHT22;23366;52.498;13.446;2022-07-23T14:40:47;26.70;70.70
37518;DHT22;23366;52.498;13.446;2022-07-23T14:43:12;26.60;70.30
37518;DHT22;23366;52.498;13.446;2022-07-23T14:45:38;26.40;69.60
37518;DHT22;23366;52.498;13.446;2022-07-23T14:48:04;26.40;70.00
37518;DHT22;23366;52.498;13.446;2022-07-23T14:50:30;26.30;69.50
37518;DHT22;23366;52.498;13.446;2022-07-23T14:52:55;26.30;70.60
37518;DHT22;23366;52.498;13.446;2022-07-23T14:55:21;26.30;69.70
37518;DHT22;23366;52.498;13.446;2022-07-23T14:57:47;26.30;69.50
37518;DHT22;23366;52.498;13.446;2022-07-23T15:00:13;26.30;69.60
37518;DHT22;23366;52.498;13.446;2022-07-23T15:02:38;26.40;69.10
37518;DHT22;23366;52.498;13.446;2022-07-23T15:05:04;26.40;69.50
37518;DHT22;23366;52.498;13.446;2022-07-23T15:07:30;26.20;68.80
37518;DHT22;23366;52.498;13.446;2022-07-23T15:09:57;26.20;69.50
37518;DHT22;23366;52.498;13.446;2022-07-23T15:12:22;26.10;68.80
37518;DHT22;23366;52.498;13.446;2022-07-23T15:14:48;26.00;69.90
37518;DHT22;23366;52.498;13.446;2022-07-23T15:17:14;26.00;70.20
37518;DHT22;23366;52.498;13.446;2022-07-23T15:19:39;25.90;69.70
37518;DHT22;23366;52.498;13.446;2022-07-23T15:22:05;26.00;69.70
37518;DHT22;23366;52.498;13.446;2022-07-23T15:24:31;25.90;70.10
37518;DHT22;23366;52.498;13.446;2022-07-23T15:26:57;25.80;69.50
37518;DHT22;23366;52.498;13.446;2022-07-23T15:29:22;25.70;69.50
37518;DHT22;23366;52.498;13.446;2022-07-23T15:31:48;25.60;68.80
37518;DHT22;23366;52.498;13.446;2022-07-23T15:34:14;25.40;69.30
37518;DHT22;23366;52.498;13.446;2022-07-23T15:36:40;25.30;70.60
37518;DHT22;23366;52.498;13.446;2022-07-23T15:39:06;25.20;69.60
37518;DHT22;23366;52.498;13.446;2022-07-23T15:41:32;25.10;70.00
37518;DHT22;23366;52.498;13.446;2022-07-23T15:43:58;25.00;70.20
37518;DHT22;23366;52.498;13.446;2022-07-23T15:46:25;24.90;71.00